sensor_id;sensor_type;location;lat;lon;timestamp;temperature;humidity
2623;DHT22;1321;48.690;9.022;2023-05-10T00:02:03;16.00;1.00
2623;DHT22;1321;48.690;9.022;2023-05-10T00:04:57;16.00;99.90
2623;DHT22;1321;48.690;9.022;2023-05-10T00:07:55;15.90;1.00
2623;DHT22;1321;48.690;9.022;2023-05-10T00:10:37;15.90;1.00
2623;DHT22;1321;48.690;9.022;2023-05-10T00:13:13;15.90;1.00
2623;DHT22;1321;48.690;9.022;2023-05-10T00:16:04;15.90;1.00
2623;DHT22;1321;48.690;9.022;2023-05-10T00:18:59;15.80;1.00
2623;DHT22;1321;48.690;9.022;2023-05-10T00:21:38;15.90;99.90
2623;DHT22;1321;48.690;9.022;2023-05-10T00:24:23;15.90;99.90
2623;DHT22;1321;48.690;9.022;2023-05-10T00:26:52;15.80;71.80
2623;DHT22;1321;48.690;9.022;2023-05-10T00:29:23;15.80;99.90
2623;DHT22;1321;48.690;9.022;2023-05-10T00:31:52;15.70;74.40
2623;DHT22;1321;48.690;9.022;2023-05-10T00:34:21;15.70;99.90
2623;DHT22;1321;48.690;9.022;2023-05-10T00:36:49;15.70;18.20
2623;DHT22;1321;48.690;9.022;2023-05-10T00:39:18;15.60;99.90
2623;DHT22;1321;48.690;9.022;2023-05-10T00:41:46;15.60;42.00
2623;DHT22;1321;48.690;9.022;2023-05-10T00:44:14;15.60;1.00
2623;DHT22;1321;48.690;9.022;2023-05-10T00:46:42;15.60;99.90
2623;DHT22;1321;48.690;9.022;2023-05-10T00:49:11;15.60;1.00
2623;DHT22;1321;48.690;9.022;2023-05-10T00:51:41;15.60;1.00
2623;DHT22;1321;48.690;9.022;2023-05-10T00:54:28;15.60;99.90
2623;DHT22;1321;48.690;9.022;2023-05-10T00:57:01;15.60;33.30
2623;DHT22;1321;48.690;9.022;2023-05-10T00:59:37;15.60;99.90
2623;DHT22;1321;48.690;9.022;2023-05-10T01:02:06;15.40;99.90
2623;DHT22;1321;48.690;9.022;2023-05-10T01:04:35;15.50;99.90
2623;DHT22;1321;48.690;9.022;2023-05-10T01:07:05;15.50;99.90
2623;DHT22;1321;48.690;9.022;2023-05-10T01:09:34;15.40;99.90
2623;DHT22;1321;48.690;9.022;2023-05-10T01:12:02;15.40;1.00
2623;DHT22;1321;48.690;9.022;2023-05-10T01:14:35;15.40;1.00
2623;DHT22;1321;48.690;9.022;2023-05-10T01:17:05;15.40;1.00
2623;DHT22;1321;48.690;9.022;2023-05-10T01:19:34;15.50;99.90
2623;DHT22;1321;48.690;9.022;2023-05-10T01:22:15;15.50;1.00
2623;DHT22;1321;48.690;9.022;2023-05-10T01:28:39;15.40;1.00
2623;DHT22;1321;48.690;9.022;2023-05-10T01:31:22;15.40;1.00
2623;DHT22;1321;48.690;9.022;2023-05-10T01:34:00;15.40;1.00
2623;DHT22;1321;48.690;9.022;2023-05-10T01:36:31;15.40;1.00
2623;DHT22;1321;48.690;9.022;2023-05-10T01:39:04;15.40;1.00
2623;DHT22;1321;48.690;9.022;2023-05-10T01:41:39;15.30;1.00
2623;DHT22;1321;48.690;9.022;2023-05-10T01:44:17;15.30;1.00
2623;DHT22;1321;48.690;9.022;2023-05-10T01:46:53;15.40;1.00
2623;DHT22;1321;48.690;9.022;2023-05-10T01:49:28;15.30;38.80
2623;DHT22;1321;48.690;9.022;2023-05-10T01:52:07;15.30;1.00
2623;DHT22;1321;48.690;9.022;2023-05-10T01:54:44;15.30;99.90
2623;DHT22;1321;48.690;9.022;2023-05-10T01:57:24;15.30;99.90
2623;DHT22;1321;48.690;9.022;2023-05-10T02:00:32;15.30;1.00
2623;DHT22;1321;48.690;9.022;2023-05-10T02:06:36;15.30;99.90
2623;DHT22;1321;48.690;9.022;2023-05-10T02:09:16;15.30;1.00
2623;DHT22;1321;48.690;9.022;2023-05-10T02:11:48;15.30;99.90
2623;DHT22;1321;48.690;9.022;2023-05-10T02:14:17;15.30;24.60
2623;DHT22;1321;48.690;9.022;2023-05-10T02:16:47;15.30;99.90
2623;DHT22;1321;48.690;9.022;2023-05-10T02:19:40;15.30;99.90
2623;DHT22;1321;48.690;9.022;2023-05-10T02:22:32;15.30;99.90
2623;DHT22;1321;48.690;9.022;2023-05-10T02:25:36;15.30;1.00
2623;DHT22;1321;48.690;9.022;2023-05-10T02:28:30;15.30;1.00
2623;DHT22;1321;48.690;9.022;2023-05-10T02:31:56;15.30;99.90
2623;DHT22;1321;48.690;9.022;2023-05-10T02:34:46;15.20;45.10
2623;DHT22;1321;48.690;9.022;2023-05-10T02:37:52;15.20;99.90
2623;DHT22;1321;48.690;9.022;2023-05-10T02:40:47;15.20;99.90
2623;DHT22;1321;48.690;9.022;2023-05-10T02:46:25;15.30;1.00
2623;DHT22;1321;48.690;9.022;2023-05-10T02:48:54;15.20;99.90
2623;DHT22;1321;48.690;9.022;2023-05-10T02:51:30;15.20;99.90
2623;DHT22;1321;48.690;9.022;2023-05-10T02:54:09;15.20;99.90
2623;DHT22;1321;48.690;9.022;2023-05-10T02:56:44;15.20;1.00
2623;DHT22;1321;48.690;9.022;2023-05-10T02:59:17;15.20;99.90
2623;DHT22;1321;48.690;9.022;2023-05-10T03:01:45;15.20;97.10
2623;DHT22;1321;48.690;9.022;2023-05-10T03:04:30;15.10;99.90
2623;DHT22;1321;48.690;9.022;2023-05-10T03:07:16;15.10;1.00
2623;DHT22;1321;48.690;9.022;2023-05-10T03:09:47;15.10;99.90
2623;DHT22;1321;48.690;9.022;2023-05-10T03:15:51;15.20;1.00
2623;DHT22;1321;48.690;9.022;2023-05-10T03:18:29;15.10;1.00
2623;DHT22;1321;48.690;9.022;2023-05-10T03:21:18;15.10;58.10
2623;DHT22;1321;48.690;9.022;2023-05-10T03:23:59;15.10;57.10
2623;DHT22;1321;48.690;9.022;2023-05-10T03:26:37;15.10;44.10
2623;DHT22;1321;48.690;9.022;2023-05-10T03:29:10;15.10;35.80
2623;DHT22;1321;48.690;9.022;2023-05-10T03:31:39;15.10;1.00
2623;DHT22;1321;48.690;9.022;2023-05-10T03:34:07;15.00;15.10
2623;DHT22;1321;48.690;9.022;2023-05-10T03:36:35;15.00;99.90
2623;DHT22;1321;48.690;9.022;2023-05-10T03:39:04;15.10;1.00
2623;DHT22;1321;48.690;9.022;2023-05-10T03:41:32;15.00;1.00
2623;DHT22;1321;48.690;9.022;2023-05-10T03:44:10;15.00;1.00
2623;DHT22;1321;48.690;9.022;2023-05-10T03:46:47;15.10;1.00
2623;DHT22;1321;48.690;9.022;2023-05-10T03:49:16;15.10;1.00
2623;DHT22;1321;48.690;9.022;2023-05-10T03:51:56;15.00;99.90
2623;DHT22;1321;48.690;9.022;2023-05-10T03:54:46;15.00;99.90
2623;DHT22;1321;48.690;9.022;2023-05-10T03:57:21;15.00;99.90
2623;DHT22;1321;48.690;9.022;2023-05-10T04:00:21;14.90;1.00
2623;DHT22;1321;48.690;9.022;2023-05-10T04:02:59;14.90;1.00
2623;DHT22;1321;48.690;9.022;2023-05-10T04:05:46;14.80;1.00
2623;DHT22;1321;48.690;9.022;2023-05-10T04:08:15;14.80;99.90
2623;DHT22;1321;48.690;9.022;2023-05-10T04:11:07;14.70;1.00
2623;DHT22;1321;48.690;9.022;2023-05-10T04:13:59;14.70;1.00
2623;DHT22;1321;48.690;9.022;2023-05-10T04:16:32;14.80;1.00
2623;DHT22;1321;48.690;9.022;2023-05-10T04:19:13;14.80;99.90
2623;DHT22;1321;48.690;9.022;2023-05-10T04:22:10;14.70;99.90
2623;DHT22;1321;48.690;9.022;2023-05-10T04:25:26;14.80;99.90
2623;DHT22;1321;48.690;9.022;2023-05-10T04:28:37;14.80;99.90
2623;DHT22;1321;48.690;9.022;2023-05-10T04:31:46;14.80;99.90
2623;DHT22;1321;48.690;9.022;2023-05-10T04:34:55;14.80;99.90
2623;DHT22;1321;48.690;9.022;2023-05-10T04:37:53;14.90;99.90
2623;DHT22;1321;48.690;9.022;2023-05-10T04:40:46;14.90;1.00
2623;DHT22;1321;48.690;9.022;2023-05-10T04:43:37;14.90;1.00
2623;DHT22;1321;48.690;9.022;2023-05-10T04:49:09;14.90;99.90
2623;DHT22;1321;48.690;9.022;2023-05-10T04:51:59;14.90;99.90
2623;DHT22;1321;48.690;9.022;2023-05-10T04:54:48;14.90;1.00
2623;DHT22;1321;48.690;9.022;2023-05-10T04:57:27;14.90;99.90
2623;DHT22;1321;48.690;9.022;2023-05-10T05:00:23;15.00;1.00
2623;DHT22;1321;48.690;9.022;2023-05-10T05:03:44;15.00;1.00
2623;DHT22;1321;48.690;9.022;2023-05-10T05:09:42;15.00;1.00
2623;DHT22;1321;48.690;9.022;2023-05-10T05:12:44;15.00;1.00
2623;DHT22;1321;48.690;9.022;2023-05-10T05:15:31;15.00;99.90
2623;DHT22;1321;48.690;9.022;2023-05-10T05:18:25;15.10;1.00
2623;DHT22;1321;48.690;9.022;2023-05-10T05:21:02;15.10;99.90
2623;DHT22;1321;48.690;9.022;2023-05-10T05:23:57;15.00;99.90
2623;DHT22;1321;48.690;9.022;2023-05-10T05:27:05;15.00;1.00
2623;DHT22;1321;48.690;9.022;2023-05-10T05:33:19;15.00;99.90
2623;DHT22;1321;48.690;9.022;2023-05-10T05:36:39;15.00;99.90
2623;DHT22;1321;48.690;9.022;2023-05-10T05:39:16;15.00;1.00
2623;DHT22;1321;48.690;9.022;2023-05-10T05:41:53;15.00;99.90
2623;DHT22;1321;48.690;9.022;2023-05-10T05:44:47;15.00;57.70
2623;DHT22;1321;48.690;9.022;2023-05-10T05:47:59;15.00;1.00
2623;DHT22;1321;48.690;9.022;2023-05-10T05:50:59;15.00;6.70
2623;DHT22;1321;48.690;9.022;2023-05-10T05:53:57;15.00;1.00
2623;DHT22;1321;48.690;9.022;2023-05-10T05:56:40;15.10;99.90
2623;DHT22;1321;48.690;9.022;2023-05-10T06:00:02;15.00;99.90
2623;DHT22;1321;48.690;9.022;2023-05-10T06:03:24;15.00;1.00
2623;DHT22;1321;48.690;9.022;2023-05-10T06:06:23;15.10;1.00
2623;DHT22;1321;48.690;9.022;2023-05-10T06:09:17;15.10;1.00
2623;DHT22;1321;48.690;9.022;2023-05-10T06:12:04;15.10;1.00
2623;DHT22;1321;48.690;9.022;2023-05-10T06:15:11;15.20;99.90
2623;DHT22;1321;48.690;9.022;2023-05-10T06:18:06;15.10;43.90
2623;DHT22;1321;48.690;9.022;2023-05-10T06:21:07;15.20;99.90
2623;DHT22;1321;48.690;9.022;2023-05-10T06:24:23;15.20;99.90
2623;DHT22;1321;48.690;9.022;2023-05-10T06:27:28;15.20;99.90
2623;DHT22;1321;48.690;9.022;2023-05-10T06:30:49;15.20;1.00
2623;DHT22;1321;48.690;9.022;2023-05-10T06:33:31;15.20;57.00
2623;DHT22;1321;48.690;9.022;2023-05-10T06:36:29;15.20;1.00
2623;DHT22;1321;48.690;9.022;2023-05-10T06:39:11;15.20;1.00
2623;DHT22;1321;48.690;9.022;2023-05-10T06:42:01;15.10;99.90
2623;DHT22;1321;48.690;9.022;2023-05-10T06:44:59;15.20;1.00
2623;DHT22;1321;48.690;9.022;2023-05-10T06:48:07;15.20;99.90
2623;DHT22;1321;48.690;9.022;2023-05-10T06:50:59;15.20;1.00
2623;DHT22;1321;48.690;9.022;2023-05-10T06:53:50;15.20;1.00
2623;DHT22;1321;48.690;9.022;2023-05-10T06:56:57;15.30;99.90
2623;DHT22;1321;48.690;9.022;2023-05-10T07:00:20;15.30;99.90
2623;DHT22;1321;48.690;9.022;2023-05-10T07:03:10;15.40;99.90
2623;DHT22;1321;48.690;9.022;2023-05-10T07:06:21;15.40;1.00
2623;DHT22;1321;48.690;9.022;2023-05-10T07:09:43;15.40;99.90
2623;DHT22;1321;48.690;9.022;2023-05-10T07:12:25;15.50;1.00
2623;DHT22;1321;48.690;9.022;2023-05-10T07:15:17;15.50;1.00
2623;DHT22;1321;48.690;9.022;2023-05-10T07:18:19;15.50;96.20
2623;DHT22;1321;48.690;9.022;2023-05-10T07:21:45;15.60;1.00
2623;DHT22;1321;48.690;9.022;2023-05-10T07:24:35;15.60;99.90
2623;DHT22;1321;48.690;9.022;2023-05-10T07:30:57;15.50;99.90
2623;DHT22;1321;48.690;9.022;2023-05-10T07:37:17;15.50;99.90
2623;DHT22;1321;48.690;9.022;2023-05-10T07:40:07;15.60;99.90
2623;DHT22;1321;48.690;9.022;2023-05-10T07:43:13;15.60;62.10
2623;DHT22;1321;48.690;9.022;2023-05-10T07:46:10;15.60;1.00
2623;DHT22;1321;48.690;9.022;2023-05-10T07:49:27;15.60;99.90
2623;DHT22;1321;48.690;9.022;2023-05-10T07:52:32;15.60;99.90
2623;DHT22;1321;48.690;9.022;2023-05-10T07:55:57;15.60;99.90
2623;DHT22;1321;48.690;9.022;2023-05-10T07:58:53;15.70;49.30
2623;DHT22;1321;48.690;9.022;2023-05-10T08:01:58;15.80;1.00
2623;DHT22;1321;48.690;9.022;2023-05-10T08:05:11;15.80;99.90
2623;DHT22;1321;48.690;9.022;2023-05-10T08:08:02;15.80;63.20
2623;DHT22;1321;48.690;9.022;2023-05-10T08:10:52;15.80;66.60
2623;DHT22;1321;48.690;9.022;2023-05-10T08:13:59;16.00;62.50
2623;DHT22;1321;48.690;9.022;2023-05-10T08:16:54;16.00;1.00
2623;DHT22;1321;48.690;9.022;2023-05-10T08:19:48;15.90;1.00
2623;DHT22;1321;48.690;9.022;2023-05-10T08:22:44;16.00;1.00
2623;DHT22;1321;48.690;9.022;2023-05-10T08:25:36;16.00;1.00
2623;DHT22;1321;48.690;9.022;2023-05-10T08:28:44;16.00;99.90
2623;DHT22;1321;48.690;9.022;2023-05-10T08:31:56;16.10;1.00
2623;DHT22;1321;48.690;9.022;2023-05-10T08:35:31;16.10;1.00
2623;DHT22;1321;48.690;9.022;2023-05-10T08:38:58;16.00;1.00
2623;DHT22;1321;48.690;9.022;2023-05-10T08:42:04;16.00;1.00
2623;DHT22;1321;48.690;9.022;2023-05-10T08:45:17;16.00;1.00
2623;DHT22;1321;48.690;9.022;2023-05-10T08:48:25;16.10;99.90
2623;DHT22;1321;48.690;9.022;2023-05-10T08:51:44;16.10;99.90
2623;DHT22;1321;48.690;9.022;2023-05-10T08:54:51;16.20;99.90
2623;DHT22;1321;48.690;9.022;2023-05-10T08:57:54;16.30;99.90
2623;DHT22;1321;48.690;9.022;2023-05-10T09:00:48;16.30;99.90
2623;DHT22;1321;48.690;9.022;2023-05-10T09:03:43;16.30;99.90
2623;DHT22;1321;48.690;9.022;2023-05-10T09:06:51;16.20;99.90
2623;DHT22;1321;48.690;9.022;2023-05-10T09:10:35;16.20;99.90
2623;DHT22;1321;48.690;9.022;2023-05-10T09:14:07;16.20;99.90
2623;DHT22;1321;48.690;9.022;2023-05-10T09:17:29;16.30;99.90
2623;DHT22;1321;48.690;9.022;2023-05-10T09:20:39;16.30;99.90
2623;DHT22;1321;48.690;9.022;2023-05-10T09:23:50;16.30;92.10
2623;DHT22;1321;48.690;9.022;2023-05-10T09:26:54;16.40;98.90
2623;DHT22;1321;48.690;9.022;2023-05-10T09:29:44;16.30;99.30
2623;DHT22;1321;48.690;9.022;2023-05-10T09:33:43;16.40;99.90
2623;DHT22;1321;48.690;9.022;2023-05-10T09:37:07;16.40;95.00
2623;DHT22;1321;48.690;9.022;2023-05-10T09:40:18;16.50;64.30
2623;DHT22;1321;48.690;9.022;2023-05-10T09:43:43;16.60;8.70
2623;DHT22;1321;48.690;9.022;2023-05-10T09:47:09;16.70;1.00
2623;DHT22;1321;48.690;9.022;2023-05-10T09:50:19;16.80;1.00
2623;DHT22;1321;48.690;9.022;2023-05-10T09:53:38;16.90;1.00
2623;DHT22;1321;48.690;9.022;2023-05-10T10:00:34;17.00;1.00
2623;DHT22;1321;48.690;9.022;2023-05-10T10:03:47;17.10;1.00
2623;DHT22;1321;48.690;9.022;2023-05-10T10:06:40;17.20;1.00
2623;DHT22;1321;48.690;9.022;2023-05-10T10:10:07;17.30;1.00
2623;DHT22;1321;48.690;9.022;2023-05-10T10:13:20;17.40;1.00
2623;DHT22;1321;48.690;9.022;2023-05-10T10:16:24;17.40;1.00
2623;DHT22;1321;48.690;9.022;2023-05-10T10:19:54;17.60;1.00
2623;DHT22;1321;48.690;9.022;2023-05-10T10:22:45;17.70;1.00
2623;DHT22;1321;48.690;9.022;2023-05-10T10:25:15;17.90;1.00
2623;DHT22;1321;48.690;9.022;2023-05-10T10:27:49;17.90;1.00
2623;DHT22;1321;48.690;9.022;2023-05-10T10:30:28;18.00;99.90
2623;DHT22;1321;48.690;9.022;2023-05-10T10:33:18;18.00;99.90
2623;DHT22;1321;48.690;9.022;2023-05-10T10:36:06;18.00;99.90
2623;DHT22;1321;48.690;9.022;2023-05-10T10:43:28;18.00;99.90
2623;DHT22;1321;48.690;9.022;2023-05-10T10:46:58;17.80;99.90
2623;DHT22;1321;48.690;9.022;2023-05-10T10:49:30;17.40;99.90
2623;DHT22;1321;48.690;9.022;2023-05-10T10:52:20;17.20;99.90
2623;DHT22;1321;48.690;9.022;2023-05-10T10:54:52;16.80;99.90
2623;DHT22;1321;48.690;9.022;2023-05-10T10:57:58;16.50;99.90
2623;DHT22;1321;48.690;9.022;2023-05-10T11:01:21;16.50;99.90
2623;DHT22;1321;48.690;9.022;2023-05-10T11:04:20;16.40;99.90
2623;DHT22;1321;48.690;9.022;2023-05-10T11:07:30;16.20;99.90
2623;DHT22;1321;48.690;9.022;2023-05-10T11:11:09;16.30;99.90
2623;DHT22;1321;48.690;9.022;2023-05-10T11:14:11;16.30;99.90
2623;DHT22;1321;48.690;9.022;2023-05-10T11:17:35;16.30;99.90
2623;DHT22;1321;48.690;9.022;2023-05-10T11:20:55;16.30;99.90
2623;DHT22;1321;48.690;9.022;2023-05-10T11:28:34;16.40;99.90
2623;DHT22;1321;48.690;9.022;2023-05-10T11:32:10;16.30;99.90
2623;DHT22;1321;48.690;9.022;2023-05-10T11:43:31;16.70;99.90
2623;DHT22;1321;48.690;9.022;2023-05-10T11:49:54;17.00;99.90
2623;DHT22;1321;48.690;9.022;2023-05-10T11:52:22;17.00;99.90
2623;DHT22;1321;48.690;9.022;2023-05-10T11:54:51;17.10;99.90
2623;DHT22;1321;48.690;9.022;2023-05-10T11:57:21;17.10;99.90
2623;DHT22;1321;48.690;9.022;2023-05-10T11:59:56;17.20;99.90
2623;DHT22;1321;48.690;9.022;2023-05-10T12:02:25;17.40;99.90
2623;DHT22;1321;48.690;9.022;2023-05-10T12:04:55;17.30;99.90
2623;DHT22;1321;48.690;9.022;2023-05-10T12:08:10;17.30;99.90
2623;DHT22;1321;48.690;9.022;2023-05-10T12:14:35;17.40;99.90
2623;DHT22;1321;48.690;9.022;2023-05-10T12:17:32;17.30;99.90
2623;DHT22;1321;48.690;9.022;2023-05-10T12:20:13;17.30;99.90
2623;DHT22;1321;48.690;9.022;2023-05-10T12:26:53;17.20;99.90
2623;DHT22;1321;48.690;9.022;2023-05-10T12:30:00;17.10;99.90
2623;DHT22;1321;48.690;9.022;2023-05-10T12:33:06;17.10;99.90
2623;DHT22;1321;48.690;9.022;2023-05-10T12:36:16;17.10;99.90
2623;DHT22;1321;48.690;9.022;2023-05-10T12:39:06;17.00;99.90
2623;DHT22;1321;48.690;9.022;2023-05-10T12:42:00;17.00;99.90
2623;DHT22;1321;48.690;9.022;2023-05-10T12:45:23;17.00;99.90
2623;DHT22;1321;48.690;9.022;2023-05-10T12:48:55;17.00;99.90
2623;DHT22;1321;48.690;9.022;2023-05-10T12:52:01;17.00;99.90
2623;DHT22;1321;48.690;9.022;2023-05-10T12:55:03;17.00;99.90
2623;DHT22;1321;48.690;9.022;2023-05-10T12:57:47;17.10;99.90
2623;DHT22;1321;48.690;9.022;2023-05-10T13:00:16;17.00;99.90
2623;DHT22;1321;48.690;9.022;2023-05-10T13:02:48;17.10;99.90
2623;DHT22;1321;48.690;9.022;2023-05-10T13:05:34;17.20;99.90
2623;DHT22;1321;48.690;9.022;2023-05-10T13:11:51;17.10;99.90
2623;DHT22;1321;48.690;9.022;2023-05-10T13:14:58;17.10;99.90
2623;DHT22;1321;48.690;9.022;2023-05-10T13:18:25;17.30;99.90
2623;DHT22;1321;48.690;9.022;2023-05-10T13:25:03;17.30;99.90
2623;DHT22;1321;48.690;9.022;2023-05-10T13:27:55;17.30;99.90
2623;DHT22;1321;48.690;9.022;2023-05-10T13:30:26;17.20;99.90
2623;DHT22;1321;48.690;9.022;2023-05-10T13:32:56;17.10;99.90
2623;DHT22;1321;48.690;9.022;2023-05-10T13:35:30;17.20;99.90
2623;DHT22;1321;48.690;9.022;2023-05-10T13:38:50;17.30;99.90
2623;DHT22;1321;48.690;9.022;2023-05-10T13:42:10;17.30;99.90
2623;DHT22;1321;48.690;9.022;2023-05-10T13:45:17;17.30;99.90
2623;DHT22;1321;48.690;9.022;2023-05-10T13:48:13;17.20;99.90
2623;DHT22;1321;48.690;9.022;2023-05-10T13:58:04;17.30;99.90
2623;DHT22;1321;48.690;9.022;2023-05-10T14:04:41;17.40;99.90
2623;DHT22;1321;48.690;9.022;2023-05-10T14:07:32;17.40;99.90
2623;DHT22;1321;48.690;9.022;2023-05-10T14:11:08;17.40;99.90
2623;DHT22;1321;48.690;9.022;2023-05-10T14:14:17;17.30;99.90
2623;DHT22;1321;48.690;9.022;2023-05-10T14:17:29;17.30;99.90
2623;DHT22;1321;48.690;9.022;2023-05-10T14:20:15;17.30;99.90
2623;DHT22;1321;48.690;9.022;2023-05-10T14:23:15;17.30;99.90
2623;DHT22;1321;48.690;9.022;2023-05-10T14:25:51;17.40;99.90
2623;DHT22;1321;48.690;9.022;2023-05-10T14:32:50;17.30;99.90
2623;DHT22;1321;48.690;9.022;2023-05-10T14:35:44;17.40;99.90
2623;DHT22;1321;48.690;9.022;2023-05-10T14:38:13;17.50;99.90
2623;DHT22;1321;48.690;9.022;2023-05-10T14:40:48;17.30;99.90
2623;DHT22;1321;48.690;9.022;2023-05-10T14:43:21;17.30;99.90
2623;DHT22;1321;48.690;9.022;2023-05-10T14:46:09;17.40;99.90
2623;DHT22;1321;48.690;9.022;2023-05-10T14:52:35;17.50;99.90
2623;DHT22;1321;48.690;9.022;2023-05-10T14:55:56;17.50;99.90
2623;DHT22;1321;48.690;9.022;2023-05-10T14:59:10;17.50;99.90
2623;DHT22;1321;48.690;9.022;2023-05-10T15:01:39;17.50;99.90
2623;DHT22;1321;48.690;9.022;2023-05-10T15:05:20;17.50;99.90
2623;DHT22;1321;48.690;9.022;2023-05-10T15:07:58;17.60;99.90
2623;DHT22;1321;48.690;9.022;2023-05-10T15:13:53;17.60;99.90
2623;DHT22;1321;48.690;9.022;2023-05-10T15:16:53;17.50;99.90
2623;DHT22;1321;48.690;9.022;2023-05-10T15:19:52;17.50;99.90
2623;DHT22;1321;48.690;9.022;2023-05-10T15:22:22;17.60;99.90
2623;DHT22;1321;48.690;9.022;2023-05-10T15:24:50;17.60;99.90
2623;DHT22;1321;48.690;9.022;2023-05-10T15:27:19;17.50;99.90
2623;DHT22;1321;48.690;9.022;2023-05-10T15:29:47;17.50;99.90
2623;DHT22;1321;48.690;9.022;2023-05-10T15:32:15;17.60;99.90
2623;DHT22;1321;48.690;9.022;2023-05-10T15:34:44;17.60;99.90
2623;DHT22;1321;48.690;9.022;2023-05-10T15:37:12;17.60;99.90
2623;DHT22;1321;48.690;9.022;2023-05-10T15:39:42;17.70;99.90
2623;DHT22;1321;48.690;9.022;2023-05-10T15:42:10;17.60;99.90
2623;DHT22;1321;48.690;9.022;2023-05-10T15:44:38;17.70;99.90
2623;DHT22;1321;48.690;9.022;2023-05-10T15:47:06;17.60;99.90
2623;DHT22;1321;48.690;9.022;2023-05-10T15:49:35;17.50;99.90
2623;DHT22;1321;48.690;9.022;2023-05-10T15:52:03;17.60;99.90
2623;DHT22;1321;48.690;9.022;2023-05-10T15:54:31;17.60;99.90
2623;DHT22;1321;48.690;9.022;2023-05-10T15:57:00;17.60;99.90
2623;DHT22;1321;48.690;9.022;2023-05-10T15:59:29;17.70;99.90
2623;DHT22;1321;48.690;9.022;2023-05-10T16:01:57;17.60;99.90
2623;DHT22;1321;48.690;9.022;2023-05-10T16:04:25;17.50;99.90
2623;DHT22;1321;48.690;9.022;2023-05-10T16:06:54;17.50;99.90
2623;DHT22;1321;48.690;9.022;2023-05-10T16:09:22;17.40;99.90
2623;DHT22;1321;48.690;9.022;2023-05-10T16:11:50;17.40;99.90
2623;DHT22;1321;48.690;9.022;2023-05-10T16:14:20;17.40;99.90
2623;DHT22;1321;48.690;9.022;2023-05-10T16:16:50;17.40;99.90
2623;DHT22;1321;48.690;9.022;2023-05-10T16:19:18;17.30;99.90
2623;DHT22;1321;48.690;9.022;2023-05-10T16:21:47;17.30;99.90
2623;DHT22;1321;48.690;9.022;2023-05-10T16:24:15;17.30;99.90
2623;DHT22;1321;48.690;9.022;2023-05-10T16:26:44;17.20;99.90
2623;DHT22;1321;48.690;9.022;2023-05-10T16:29:12;17.20;99.90
2623;DHT22;1321;48.690;9.022;2023-05-10T16:31:42;17.20;99.90
2623;DHT22;1321;48.690;9.022;2023-05-10T16:34:10;17.20;99.90
2623;DHT22;1321;48.690;9.022;2023-05-10T16:36:47;17.20;99.90
2623;DHT22;1321;48.690;9.022;2023-05-10T16:39:22;17.10;99.90
2623;DHT22;1321;48.690;9.022;2023-05-10T16:41:53;17.10;99.90
2623;DHT22;1321;48.690;9.022;2023-05-10T16:44:24;17.10;99.90
2623;DHT22;1321;48.690;9.022;2023-05-10T16:46:55;17.10;99.90
2623;DHT22;1321;48.690;9.022;2023-05-10T16:49:27;17.10;99.90
2623;DHT22;1321;48.690;9.022;2023-05-10T16:51:57;17.00;99.90
2623;DHT22;1321;48.690;9.022;2023-05-10T16:54:29;17.00;99.90
2623;DHT22;1321;48.690;9.022;2023-05-10T16:56:58;17.00;99.90
2623;DHT22;1321;48.690;9.022;2023-05-10T16:59:27;16.90;99.90
2623;DHT22;1321;48.690;9.022;2023-05-10T17:01:59;16.80;99.90
2623;DHT22;1321;48.690;9.022;2023-05-10T17:04:31;16.80;99.90
2623;DHT22;1321;48.690;9.022;2023-05-10T17:07:05;16.70;99.90
2623;DHT22;1321;48.690;9.022;2023-05-10T17:09:35;16.60;99.90
2623;DHT22;1321;48.690;9.022;2023-05-10T17:12:05;16.60;99.90
2623;DHT22;1321;48.690;9.022;2023-05-10T17:14:37;16.60;99.90
2623;DHT22;1321;48.690;9.022;2023-05-10T17:17:11;16.60;99.90
2623;DHT22;1321;48.690;9.022;2023-05-10T17:20:22;16.60;99.90
2623;DHT22;1321;48.690;9.022;2023-05-10T17:26:43;16.40;99.90
2623;DHT22;1321;48.690;9.022;2023-05-10T17:29:33;16.40;99.90
2623;DHT22;1321;48.690;9.022;2023-05-10T17:32:01;16.40;99.90
2623;DHT22;1321;48.690;9.022;2023-05-10T17:34:31;16.30;99.90
2623;DHT22;1321;48.690;9.022;2023-05-10T17:37:01;16.30;99.90
2623;DHT22;1321;48.690;9.022;2023-05-10T17:39:31;16.40;99.90
2623;DHT22;1321;48.690;9.022;2023-05-10T17:42:05;16.30;99.90
2623;DHT22;1321;48.690;9.022;2023-05-10T17:44:35;16.30;99.90
2623;DHT22;1321;48.690;9.022;2023-05-10T17:47:04;16.30;99.90
2623;DHT22;1321;48.690;9.022;2023-05-10T17:49:36;16.30;99.90
2623;DHT22;1321;48.690;9.022;2023-05-10T17:52:06;16.20;99.90
2623;DHT22;1321;48.690;9.022;2023-05-10T17:54:37;16.10;99.90
2623;DHT22;1321;48.690;9.022;2023-05-10T17:57:07;16.10;99.90
2623;DHT22;1321;48.690;9.022;2023-05-10T17:59:39;16.00;99.90
2623;DHT22;1321;48.690;9.022;2023-05-10T18:02:09;16.00;99.90
2623;DHT22;1321;48.690;9.022;2023-05-10T18:04:49;16.00;99.90
2623;DHT22;1321;48.690;9.022;2023-05-10T18:08:00;16.10;99.90
2623;DHT22;1321;48.690;9.022;2023-05-10T18:11:15;16.00;99.90
2623;DHT22;1321;48.690;9.022;2023-05-10T18:14:22;16.00;99.90
2623;DHT22;1321;48.690;9.022;2023-05-10T18:17:29;15.90;99.90
2623;DHT22;1321;48.690;9.022;2023-05-10T18:20:42;15.90;99.90
2623;DHT22;1321;48.690;9.022;2023-05-10T18:23:42;16.00;99.90
2623;DHT22;1321;48.690;9.022;2023-05-10T18:26:38;15.80;99.90
2623;DHT22;1321;48.690;9.022;2023-05-10T18:29:15;15.80;1.00
2623;DHT22;1321;48.690;9.022;2023-05-10T18:31:50;15.80;1.00
2623;DHT22;1321;48.690;9.022;2023-05-10T18:34:21;15.80;1.00
2623;DHT22;1321;48.690;9.022;2023-05-10T18:37:07;15.70;1.00
2623;DHT22;1321;48.690;9.022;2023-05-10T18:39:50;15.70;1.00
2623;DHT22;1321;48.690;9.022;2023-05-10T18:42:32;15.70;1.00
2623;DHT22;1321;48.690;9.022;2023-05-10T18:45:35;15.70;1.00
2623;DHT22;1321;48.690;9.022;2023-05-10T18:48:15;15.70;1.00
2623;DHT22;1321;48.690;9.022;2023-05-10T18:51:06;15.60;1.00
2623;DHT22;1321;48.690;9.022;2023-05-10T18:54:34;15.70;1.00
2623;DHT22;1321;48.690;9.022;2023-05-10T18:57:36;15.60;1.00
2623;DHT22;1321;48.690;9.022;2023-05-10T19:00:38;15.60;1.00
2623;DHT22;1321;48.690;9.022;2023-05-10T19:04:06;15.70;1.00
2623;DHT22;1321;48.690;9.022;2023-05-10T19:06:50;15.60;1.00
2623;DHT22;1321;48.690;9.022;2023-05-10T19:09:37;15.70;1.00
2623;DHT22;1321;48.690;9.022;2023-05-10T19:12:25;15.60;1.00
2623;DHT22;1321;48.690;9.022;2023-05-10T19:15:17;15.60;1.00
2623;DHT22;1321;48.690;9.022;2023-05-10T19:18:07;15.60;1.00
2623;DHT22;1321;48.690;9.022;2023-05-10T19:20:45;15.60;1.00
2623;DHT22;1321;48.690;9.022;2023-05-10T19:23:23;15.60;1.00
2623;DHT22;1321;48.690;9.022;2023-05-10T19:26:13;15.60;1.00
2623;DHT22;1321;48.690;9.022;2023-05-10T19:28:58;15.50;1.00
2623;DHT22;1321;48.690;9.022;2023-05-10T19:31:43;15.50;1.00
2623;DHT22;1321;48.690;9.022;2023-05-10T19:34:45;15.50;1.00
2623;DHT22;1321;48.690;9.022;2023-05-10T19:37:31;15.50;1.00
2623;DHT22;1321;48.690;9.022;2023-05-10T19:40:28;15.50;1.00
2623;DHT22;1321;48.690;9.022;2023-05-10T19:43:15;15.50;1.00
2623;DHT22;1321;48.690;9.022;2023-05-10T19:45:53;15.50;99.90
2623;DHT22;1321;48.690;9.022;2023-05-10T19:48:41;15.50;1.00
2623;DHT22;1321;48.690;9.022;2023-05-10T19:51:16;15.50;99.90
2623;DHT22;1321;48.690;9.022;2023-05-10T19:53:46;15.50;1.00
2623;DHT22;1321;48.690;9.022;2023-05-10T19:56:14;15.50;1.00
2623;DHT22;1321;48.690;9.022;2023-05-10T19:58:45;15.50;1.00
2623;DHT22;1321;48.690;9.022;2023-05-10T20:01:14;15.50;99.90
2623;DHT22;1321;48.690;9.022;2023-05-10T20:03:53;15.40;99.90
2623;DHT22;1321;48.690;9.022;2023-05-10T20:06:30;15.30;99.90